createdAt,value
2018-01-25T00:00:16.829Z,1008.94
2018-01-25T00:01:16.030Z,1009.14
2018-01-25T00:02:17.329Z,1009.29
2018-01-25T00:03:16.238Z,1009.16
2018-01-25T00:04:16.122Z,1009.41
2018-01-25T00:05:16.567Z,1009.40
2018-01-25T00:06:15.927Z,1009.40
2018-01-25T00:07:16.774Z,1009.43
2018-01-25T00:08:38.498Z,1009.36
2018-01-25T00:09:39.328Z,1009.36
2018-01-25T00:10:38.944Z,1009.52
2018-01-25T00:11:39.963Z,1009.35
2018-01-25T00:12:38.823Z,1009.28
2018-01-25T00:13:38.890Z,1009.35
2018-01-25T00:14:39.775Z,1009.36
2018-01-25T00:15:39.034Z,1009.37
2018-01-25T00:17:01.171Z,1009.37
2018-01-25T00:18:01.656Z,1009.37
2018-01-25T00:19:01.643Z,1009.45
2018-01-25T00:20:00.961Z,1009.47
2018-01-25T00:21:01.655Z,1009.48
2018-01-25T00:22:01.074Z,1009.50
2018-01-25T00:23:01.870Z,1009.52
2018-01-25T00:24:01.271Z,1009.56
2018-01-25T00:25:02.179Z,1009.57
2018-01-25T00:26:01.779Z,1009.55
2018-01-25T00:27:00.930Z,1009.60
2018-01-25T00:28:01.458Z,1009.57
2018-01-25T00:29:00.867Z,1009.56
2018-01-25T00:30:01.294Z,1009.52
2018-01-25T00:31:01.967Z,1009.48
2018-01-25T00:32:02.307Z,1009.53
2018-01-25T00:33:02.003Z,1009.62
2018-01-25T00:34:01.578Z,1009.63
2018-01-25T00:35:01.975Z,1009.68
2018-01-25T00:36:01.868Z,1009.69
2018-01-25T00:37:01.549Z,1009.72
2018-01-25T00:38:01.352Z,1009.71
2018-01-25T00:39:02.285Z,1009.69
2018-01-25T00:40:01.608Z,1009.73
2018-01-25T00:41:01.318Z,1009.70
2018-01-25T00:42:02.034Z,1009.79
2018-01-25T00:43:01.851Z,1009.77
2018-01-25T00:44:01.818Z,1009.76
2018-01-25T00:45:01.778Z,1009.80
2018-01-25T00:46:01.394Z,1009.73
2018-01-25T00:47:00.868Z,1009.68
2018-01-25T00:48:02.413Z,1009.64
2018-01-25T00:49:03.090Z,1009.58
2018-01-25T00:50:03.108Z,1009.61
2018-01-25T00:51:02.878Z,1009.57
2018-01-25T00:52:01.959Z,1009.66
2018-01-25T00:53:01.867Z,1009.69
2018-01-25T00:54:01.702Z,1009.73
2018-01-25T00:55:01.495Z,1009.68
2018-01-25T00:56:01.349Z,1009.65
2018-01-25T00:57:24.354Z,1009.64
2018-01-25T00:58:25.005Z,1009.59
2018-01-25T00:59:24.848Z,1009.60
2018-01-25T01:00:24.606Z,1009.61
2018-01-25T01:01:25.358Z,1009.64
2018-01-25T01:02:47.409Z,1009.60
2018-01-25T01:03:47.811Z,1009.60
2018-01-25T01:04:47.154Z,1009.58
2018-01-25T01:05:47.866Z,1009.57
2018-01-25T01:06:47.801Z,1009.59
2018-01-25T01:07:48.203Z,1009.64
2018-01-25T01:08:47.959Z,1009.55
2018-01-25T01:09:47.815Z,1009.63
2018-01-25T01:10:48.571Z,1009.69
2018-01-25T01:11:48.430Z,1009.71
2018-01-25T01:12:48.386Z,1009.70
2018-01-25T01:13:48.289Z,1009.78
2018-01-25T01:14:48.106Z,1009.75
2018-01-25T01:15:47.836Z,1009.79
2018-01-25T01:16:48.542Z,1009.84
2018-01-25T01:17:48.449Z,1009.82
2018-01-25T01:18:48.219Z,1009.80
2018-01-25T01:19:48.033Z,1009.84
2018-01-25T01:20:47.867Z,1009.87
2018-01-25T01:21:47.212Z,1009.86
2018-01-25T01:22:47.658Z,1009.86
2018-01-25T01:23:48.518Z,1009.87
2018-01-25T01:24:47.910Z,1009.83
2018-01-25T01:25:47.372Z,1009.86
2018-01-25T01:26:47.747Z,1009.85
2018-01-25T01:27:48.606Z,1009.83
2018-01-25T01:28:48.166Z,1009.83
2018-01-25T01:29:47.868Z,1009.88
2018-01-25T01:30:47.726Z,1009.87
2018-01-25T01:31:48.907Z,1009.92
2018-01-25T01:32:47.343Z,1009.89
2018-01-25T01:33:47.897Z,1009.91
2018-01-25T01:34:48.653Z,1009.93
2018-01-25T01:35:48.459Z,1009.96
2018-01-25T01:36:48.354Z,1009.94
2018-01-25T01:37:48.341Z,1009.94
2018-01-25T01:39:54.473Z,1009.92
2018-01-25T01:40:54.962Z,1009.94
2018-01-25T01:41:55.721Z,1009.98
2018-01-25T01:42:55.684Z,1009.98
2018-01-25T01:43:55.249Z,1009.96
2018-01-25T01:45:17.593Z,1009.95
2018-01-25T01:46:18.419Z,1009.99
2018-01-25T01:47:18.046Z,1009.95
2018-01-25T01:48:17.789Z,1010.03
2018-01-25T01:49:40.518Z,1009.99
2018-01-25T01:50:41.312Z,1009.99
2018-01-25T01:51:41.014Z,1010.09
2018-01-25T01:54:01.005Z,1010.09
2018-01-25T01:55:01.791Z,1010.20
2018-01-25T01:56:01.620Z,1010.11
2018-01-25T01:57:01.016Z,1009.98
2018-01-25T01:58:01.794Z,1009.95
2018-01-25T01:59:01.167Z,1009.99
2018-01-25T02:00:01.431Z,1010.04
2018-01-25T02:01:01.198Z,1010.08
2018-01-25T02:02:01.558Z,1010.14
2018-01-25T02:03:01.493Z,1010.09
2018-01-25T02:04:23.335Z,1010.04
2018-01-25T02:05:24.330Z,1010.10
2018-01-25T02:06:24.021Z,1010.20
2018-01-25T02:07:23.478Z,1010.24
2018-01-25T02:08:24.215Z,1010.21
2018-01-25T02:09:23.866Z,1010.24
2018-01-25T02:10:24.572Z,1010.24
2018-01-25T02:11:24.278Z,1010.29
2018-01-25T02:12:46.545Z,1010.28
2018-01-25T02:13:47.345Z,1010.30
2018-01-25T02:14:47.146Z,1010.29
2018-01-25T02:15:46.808Z,1010.26
2018-01-25T02:16:47.146Z,1010.25
2018-01-25T02:17:46.838Z,1010.31
2018-01-25T02:18:46.468Z,1010.37
2018-01-25T02:19:47.279Z,1010.34
2018-01-25T02:20:46.543Z,1010.27
2018-01-25T02:21:47.107Z,1010.25
2018-01-25T02:22:46.601Z,1010.25
2018-01-25T02:23:46.997Z,1010.23
2018-01-25T02:24:46.185Z,1010.20
2018-01-25T02:25:46.848Z,1010.21
2018-01-25T02:26:46.688Z,1010.16
2018-01-25T02:27:46.491Z,1010.14
2018-01-25T02:29:08.846Z,1010.12
2018-01-25T02:30:09.712Z,1010.14
2018-01-25T02:31:09.232Z,1010.15
2018-01-25T02:32:09.526Z,1010.19
2018-01-25T02:33:11.881Z,1010.18
2018-01-25T02:34:09.543Z,1010.22
2018-01-25T02:35:10.142Z,1010.22
2018-01-25T02:36:09.864Z,1010.27
2018-01-25T02:37:09.433Z,1010.32
2018-01-25T02:38:10.047Z,1010.45
2018-01-25T02:39:09.758Z,1010.45
2018-01-25T02:40:09.383Z,1010.51
2018-01-25T02:41:10.234Z,1010.61
2018-01-25T02:42:09.644Z,1010.66
2018-01-25T02:43:09.292Z,1010.71
2018-01-25T02:44:09.552Z,1010.75
2018-01-25T02:45:09.374Z,1010.78
2018-01-25T02:46:09.659Z,1010.81
2018-01-25T02:47:09.924Z,1010.82
2018-01-25T02:48:32.371Z,1010.81
2018-01-25T02:49:32.947Z,1010.85
2018-01-25T02:50:32.982Z,1010.86
2018-01-25T02:51:32.896Z,1010.84
2018-01-25T02:52:32.621Z,1010.86
2018-01-25T02:53:31.886Z,1010.89
2018-01-25T02:54:32.089Z,1010.85
2018-01-25T02:55:32.976Z,1010.87
2018-01-25T02:56:32.679Z,1010.86
2018-01-25T02:57:32.017Z,1010.85
2018-01-25T02:58:32.792Z,1010.86
2018-01-25T02:59:55.002Z,1010.80
2018-01-25T03:00:55.867Z,1010.83
2018-01-25T03:01:55.592Z,1010.82
2018-01-25T03:02:54.961Z,1010.83
2018-01-25T03:03:55.598Z,1010.83
2018-01-25T03:04:55.289Z,1010.73
2018-01-25T03:05:55.050Z,1010.69
2018-01-25T03:06:55.362Z,1010.69
2018-01-25T03:07:54.761Z,1010.67
2018-01-25T03:08:55.344Z,1010.74
2018-01-25T03:09:54.799Z,1010.72
2018-01-25T03:10:55.659Z,1010.77
2018-01-25T03:11:54.920Z,1010.81
2018-01-25T03:12:55.817Z,1010.76
2018-01-25T03:13:55.735Z,1010.74
2018-01-25T03:14:55.311Z,1010.76
2018-01-25T03:15:55.453Z,1010.80
2018-01-25T03:16:54.971Z,1010.80
2018-01-25T03:17:55.226Z,1010.84
2018-01-25T03:18:55.137Z,1010.82
2018-01-25T03:19:55.349Z,1010.88
2018-01-25T03:20:54.903Z,1010.87
2018-01-25T03:21:55.183Z,1010.89
2018-01-25T03:22:55.536Z,1010.87
2018-01-25T03:23:54.891Z,1010.91
2018-01-25T03:24:55.558Z,1010.95
2018-01-25T03:25:55.455Z,1010.96
2018-01-25T03:26:55.040Z,1010.96
2018-01-25T03:27:55.686Z,1010.94
2018-01-25T03:28:55.317Z,1010.92
2018-01-25T03:29:55.302Z,1010.89
2018-01-25T03:30:55.010Z,1010.95
2018-01-25T03:31:54.969Z,1010.98
2018-01-25T03:32:55.655Z,1011.02
2018-01-25T03:33:55.304Z,1011.06
2018-01-25T03:34:55.018Z,1011.12
2018-01-25T03:35:56.018Z,1011.16
2018-01-25T03:36:55.721Z,1011.18
2018-01-25T03:38:17.372Z,1011.15
2018-01-25T03:39:17.604Z,1011.17
2018-01-25T03:40:18.481Z,1011.20
2018-01-25T03:41:40.197Z,1011.20
2018-01-25T03:42:40.736Z,1011.20
2018-01-25T03:43:41.416Z,1011.20
2018-01-25T03:44:41.067Z,1011.18
2018-01-25T03:45:40.908Z,1011.24
2018-01-25T03:46:42.357Z,1011.23
2018-01-25T03:47:40.533Z,1011.16
2018-01-25T03:48:41.028Z,1011.15
2018-01-25T03:49:40.709Z,1011.14
2018-01-25T03:50:41.174Z,1011.12
2018-01-25T03:51:40.990Z,1011.08
2018-01-25T03:53:03.488Z,1011.02
2018-01-25T03:54:25.797Z,1011.10
2018-01-25T03:55:26.236Z,1011.18
2018-01-25T03:56:49.254Z,1011.23
2018-01-25T03:57:49.953Z,1011.34
2018-01-25T03:58:49.720Z,1011.39
2018-01-25T03:59:49.489Z,1011.39
2018-01-25T04:00:50.185Z,1011.31
2018-01-25T04:01:49.860Z,1011.22
2018-01-25T04:02:49.325Z,1011.23
2018-01-25T04:03:49.810Z,1011.26
2018-01-25T04:04:49.592Z,1011.19
2018-01-25T04:05:49.327Z,1011.13
2018-01-25T04:06:50.065Z,1011.07
2018-01-25T04:07:49.488Z,1011.11
2018-01-25T04:08:49.979Z,1011.07
2018-01-25T04:09:49.514Z,1011.08
2018-01-25T04:10:49.240Z,1011.11
2018-01-25T04:11:49.420Z,1011.19
2018-01-25T04:12:49.935Z,1011.22
2018-01-25T04:13:49.824Z,1011.17
2018-01-25T04:14:49.420Z,1011.22
2018-01-25T04:15:50.155Z,1011.28
2018-01-25T04:16:49.369Z,1011.39
2018-01-25T04:17:49.591Z,1011.37
2018-01-25T04:18:49.123Z,1011.34
2018-01-25T04:19:50.039Z,1011.34
2018-01-25T04:20:49.904Z,1011.35
2018-01-25T04:21:49.304Z,1011.39
2018-01-25T04:22:50.751Z,1011.29
2018-01-25T04:23:49.496Z,1011.26
2018-01-25T04:24:49.706Z,1011.25
2018-01-25T04:25:49.466Z,1011.21
2018-01-25T04:26:49.570Z,1011.19
2018-01-25T04:27:49.365Z,1011.28
2018-01-25T04:28:49.809Z,1011.34
2018-01-25T04:29:49.621Z,1011.36
2018-01-25T04:30:50.155Z,1011.42
2018-01-25T04:31:49.491Z,1011.40
2018-01-25T04:32:50.152Z,1011.44
2018-01-25T04:34:11.996Z,1011.38
2018-01-25T04:35:12.712Z,1011.37
2018-01-25T04:36:12.191Z,1011.38
2018-01-25T04:37:12.771Z,1011.38
2018-01-25T04:38:12.261Z,1011.50
2018-01-25T04:39:12.681Z,1011.54
2018-01-25T04:40:12.264Z,1011.57
2018-01-25T04:41:35.397Z,1011.55
2018-01-25T04:42:35.913Z,1011.50
2018-01-25T04:43:36.425Z,1011.49
2018-01-25T04:44:36.269Z,1011.46
2018-01-25T04:45:35.594Z,1011.49
2018-01-25T04:46:36.137Z,1011.57
2018-01-25T04:47:35.882Z,1011.62
2018-01-25T04:48:36.685Z,1011.61
2018-01-25T04:49:36.245Z,1011.59
2018-01-25T04:50:35.945Z,1011.60
2018-01-25T04:51:35.725Z,1011.50
2018-01-25T04:52:36.491Z,1011.46
2018-01-25T04:53:35.778Z,1011.41
2018-01-25T04:54:36.201Z,1011.50
2018-01-25T04:55:35.543Z,1011.51
2018-01-25T04:56:36.368Z,1011.52
2018-01-25T04:57:35.540Z,1011.49
2018-01-25T04:58:35.802Z,1011.44
2018-01-25T04:59:36.313Z,1011.48
2018-01-25T05:00:36.020Z,1011.52
2018-01-25T05:01:35.802Z,1011.53
2018-01-25T05:02:35.989Z,1011.58
2018-01-25T05:03:35.486Z,1011.56
2018-01-25T05:04:35.896Z,1011.60
2018-01-25T05:05:35.652Z,1011.50
2018-01-25T05:06:36.567Z,1011.54
2018-01-25T05:07:35.836Z,1011.52
2018-01-25T05:08:35.419Z,1011.53
2018-01-25T05:09:36.176Z,1011.53
2018-01-25T05:10:35.828Z,1011.58
2018-01-25T05:11:36.613Z,1011.54
2018-01-25T05:12:35.915Z,1011.52
2018-01-25T05:13:35.308Z,1011.51
2018-01-25T05:14:36.047Z,1011.57
2018-01-25T05:15:35.780Z,1011.63
2018-01-25T05:16:36.344Z,1011.59
2018-01-25T05:17:35.689Z,1011.58
2018-01-25T05:18:35.732Z,1011.62
2018-01-25T05:19:35.511Z,1011.60
2018-01-25T05:20:36.324Z,1011.63
2018-01-25T05:21:35.787Z,1011.60
2018-01-25T05:22:36.461Z,1011.57
2018-01-25T05:23:36.100Z,1011.55
2018-01-25T05:24:58.133Z,1011.54
2018-01-25T05:25:59.293Z,1011.63
2018-01-25T05:26:58.090Z,1011.64
2018-01-25T05:27:58.407Z,1011.68
2018-01-25T05:28:58.125Z,1011.68
2018-01-25T05:29:58.424Z,1011.69
2018-01-25T05:30:58.217Z,1011.64
2018-01-25T05:31:59.431Z,1011.75
2018-01-25T05:32:57.797Z,1011.75
2018-01-25T05:33:58.529Z,1011.75
2018-01-25T05:34:57.902Z,1011.75
2018-01-25T05:35:58.708Z,1011.76
2018-01-25T05:36:58.511Z,1011.79
2018-01-25T05:37:59.385Z,1011.75
2018-01-25T05:38:58.640Z,1011.76
2018-01-25T05:39:58.519Z,1011.73
2018-01-25T05:40:58.425Z,1011.74
2018-01-25T05:41:57.883Z,1011.77
2018-01-25T05:42:58.421Z,1011.78
2018-01-25T05:43:57.804Z,1011.75
2018-01-25T05:44:58.851Z,1011.71
2018-01-25T05:45:58.418Z,1011.75
2018-01-25T05:47:21.093Z,1011.70
2018-01-25T05:48:21.117Z,1011.68
2018-01-25T05:49:20.599Z,1011.68
2018-01-25T05:50:21.381Z,1011.68
2018-01-25T05:51:21.058Z,1011.72
2018-01-25T05:52:48.210Z,1011.69
2018-01-25T05:53:46.298Z,1011.63
2018-01-25T05:54:45.854Z,1011.69
2018-01-25T05:55:45.929Z,1011.67
2018-01-25T05:56:46.910Z,1011.68
2018-01-25T05:57:46.110Z,1011.71
2018-01-25T05:58:45.880Z,1011.70
2018-01-25T05:59:45.474Z,1011.64
2018-01-25T06:00:46.633Z,1011.62
2018-01-25T06:02:08.874Z,1011.60
2018-01-25T06:03:09.436Z,1011.59
2018-01-25T06:04:10.729Z,1011.62
2018-01-25T06:05:10.416Z,1011.63
2018-01-25T06:06:13.246Z,1011.64
2018-01-25T06:07:09.918Z,1011.69
2018-01-25T06:08:10.027Z,1011.69
2018-01-25T06:09:09.971Z,1011.70
2018-01-25T06:10:09.699Z,1011.70
2018-01-25T06:11:10.086Z,1011.73
2018-01-25T06:12:09.533Z,1011.76
2018-01-25T06:13:09.104Z,1011.73
2018-01-25T06:14:09.491Z,1011.78
2018-01-25T06:15:09.143Z,1011.79
2018-01-25T06:16:10.063Z,1011.78
2018-01-25T06:17:32.631Z,1011.78
2018-01-25T06:18:33.402Z,1011.75
2018-01-25T06:19:33.619Z,1011.83
2018-01-25T06:20:55.416Z,1011.76
2018-01-25T06:21:56.135Z,1011.76
2018-01-25T06:22:55.506Z,1011.83
2018-01-25T06:23:56.528Z,1011.76
2018-01-25T06:24:56.457Z,1011.79
2018-01-25T06:25:57.997Z,1011.79
2018-01-25T06:27:01.229Z,1011.79
2018-01-25T06:28:03.173Z,1011.81
2018-01-25T06:29:19.316Z,1011.84
2018-01-25T06:30:19.740Z,1011.85
2018-01-25T06:31:19.378Z,1011.86
2018-01-25T06:32:20.175Z,1011.85
2018-01-25T06:33:42.443Z,1011.92
2018-01-25T06:34:42.884Z,1011.88
2018-01-25T06:35:42.281Z,1011.90
2018-01-25T06:36:43.735Z,1011.91
2018-01-25T06:37:42.366Z,1011.92
2018-01-25T06:38:46.499Z,1011.96
2018-01-25T06:39:47.563Z,1011.95
2018-01-25T06:40:43.050Z,1011.99
2018-01-25T06:41:42.970Z,1011.99
2018-01-25T06:42:42.293Z,1011.98
2018-01-25T06:43:43.385Z,1011.99
2018-01-25T06:44:42.682Z,1011.96
2018-01-25T06:45:43.161Z,1011.97
2018-01-25T06:46:42.627Z,1011.98
2018-01-25T06:47:42.966Z,1012.02
2018-01-25T06:48:42.484Z,1012.01
2018-01-25T06:50:05.313Z,1011.99
2018-01-25T06:51:06.197Z,1012.01
2018-01-25T06:52:06.760Z,1012.03
2018-01-25T06:53:29.225Z,1011.95
2018-01-25T06:54:30.255Z,1011.99
2018-01-25T06:55:29.728Z,1011.94
2018-01-25T06:56:29.482Z,1011.89
2018-01-25T06:57:30.066Z,1011.90
2018-01-25T06:58:29.639Z,1011.83
2018-01-25T06:59:29.755Z,1011.92
2018-01-25T07:00:29.370Z,1011.95
2018-01-25T07:01:30.031Z,1011.97
2018-01-25T07:02:32.340Z,1011.95
2018-01-25T07:03:29.865Z,1011.92
2018-01-25T07:04:30.040Z,1011.96
2018-01-25T07:05:29.949Z,1011.94
2018-01-25T07:06:30.023Z,1011.99
2018-01-25T07:07:29.997Z,1011.97
2018-01-25T07:08:29.465Z,1011.93
2018-01-25T07:09:28.820Z,1011.94
2018-01-25T07:10:29.195Z,1011.93
2018-01-25T07:11:35.716Z,1011.92
2018-01-25T07:12:52.387Z,1011.91
2018-01-25T07:13:53.186Z,1011.87
2018-01-25T07:14:53.053Z,1011.85
2018-01-25T07:15:52.589Z,1011.84
2018-01-25T07:16:52.352Z,1011.88
2018-01-25T07:17:52.277Z,1011.88
2018-01-25T07:18:53.245Z,1011.85
2018-01-25T07:19:53.192Z,1011.91
2018-01-25T07:20:52.950Z,1012.01
2018-01-25T07:21:52.630Z,1012.07
2018-01-25T07:22:52.044Z,1012.07
2018-01-25T07:23:52.661Z,1012.02
2018-01-25T07:24:52.082Z,1012.08
2018-01-25T07:25:53.210Z,1012.12
2018-01-25T07:26:53.245Z,1012.09
2018-01-25T07:27:53.201Z,1012.17
2018-01-25T07:28:52.625Z,1012.23
2018-01-25T07:29:52.506Z,1012.22
2018-01-25T07:30:52.551Z,1012.22
2018-01-25T07:31:52.158Z,1012.22
2018-01-25T07:33:15.502Z,1012.20
2018-01-25T07:34:39.434Z,1012.24
2018-01-25T07:35:39.460Z,1012.22
2018-01-25T07:36:39.644Z,1012.29
2018-01-25T07:37:39.668Z,1012.25
2018-01-25T07:38:39.253Z,1012.20
2018-01-25T07:39:40.501Z,1012.27
2018-01-25T07:40:39.270Z,1012.24
2018-01-25T07:41:40.005Z,1012.22
2018-01-25T07:42:39.919Z,1012.22
2018-01-25T07:44:02.704Z,1012.23
2018-01-25T07:45:03.652Z,1012.24
2018-01-25T07:46:03.246Z,1012.21
2018-01-25T07:47:02.729Z,1012.20
2018-01-25T07:48:03.620Z,1012.20
2018-01-25T07:49:03.732Z,1012.23
2018-01-25T07:50:03.471Z,1012.30
2018-01-25T07:51:25.592Z,1012.29
2018-01-25T07:52:26.414Z,1012.28
2018-01-25T07:53:26.442Z,1012.21
2018-01-25T07:54:26.177Z,1012.13
2018-01-25T07:55:26.146Z,1012.16
2018-01-25T07:56:25.935Z,1012.20
2018-01-25T07:57:26.057Z,1012.22
2018-01-25T07:58:25.969Z,1012.22
2018-01-25T07:59:25.666Z,1012.24
2018-01-25T08:00:26.281Z,1012.25
2018-01-25T08:01:26.369Z,1012.25
2018-01-25T08:02:25.884Z,1012.25
2018-01-25T08:03:26.838Z,1012.29
2018-01-25T08:04:26.246Z,1012.27
2018-01-25T08:05:25.828Z,1012.25
2018-01-25T08:06:26.682Z,1012.28
2018-01-25T08:07:49.515Z,1012.25
2018-01-25T08:08:49.014Z,1012.31
2018-01-25T08:09:49.973Z,1012.29
2018-01-25T08:10:49.945Z,1012.27
2018-01-25T08:11:50.025Z,1012.30
2018-01-25T08:12:49.990Z,1012.28
2018-01-25T08:13:49.757Z,1012.30
2018-01-25T08:14:49.307Z,1012.25
2018-01-25T08:16:12.590Z,1012.19
2018-01-25T08:17:13.537Z,1012.15
2018-01-25T08:18:35.950Z,1012.24
2018-01-25T08:19:36.805Z,1012.25
2018-01-25T08:20:36.387Z,1012.26
2018-01-25T08:21:37.531Z,1012.22
2018-01-25T08:22:36.595Z,1012.25
2018-01-25T08:23:36.016Z,1012.24
2018-01-25T08:24:59.086Z,1012.22
2018-01-25T08:26:00.128Z,1012.27
2018-01-25T08:27:00.039Z,1012.25
2018-01-25T08:28:00.060Z,1012.23
2018-01-25T08:28:59.580Z,1012.21
2018-01-25T08:30:00.340Z,1012.28
2018-01-25T08:31:00.343Z,1012.26
2018-01-25T08:31:59.984Z,1012.30
2018-01-25T08:33:00.015Z,1012.24
2018-01-25T08:34:00.106Z,1012.27
2018-01-25T08:34:59.769Z,1012.31
2018-01-25T08:35:59.238Z,1012.32
2018-01-25T08:37:00.374Z,1012.32
2018-01-25T08:37:59.850Z,1012.32
2018-01-25T08:38:59.241Z,1012.33
2018-01-25T08:39:59.642Z,1012.30
2018-01-25T08:40:59.472Z,1012.33
2018-01-25T08:42:00.445Z,1012.35
2018-01-25T08:42:59.716Z,1012.40
2018-01-25T08:43:59.571Z,1012.39
2018-01-25T08:44:59.927Z,1012.32
2018-01-25T08:45:59.356Z,1012.33
2018-01-25T08:46:59.877Z,1012.32
2018-01-25T08:47:59.297Z,1012.31
2018-01-25T08:48:59.878Z,1012.30
2018-01-25T08:49:59.821Z,1012.25
2018-01-25T08:50:59.619Z,1012.30
2018-01-25T08:51:59.640Z,1012.31
2018-01-25T08:53:01.041Z,1012.32
2018-01-25T08:53:59.982Z,1012.20
2018-01-25T08:54:59.564Z,1012.25
2018-01-25T08:56:00.040Z,1012.26
2018-01-25T08:56:59.693Z,1012.36
2018-01-25T08:57:59.750Z,1012.31
2018-01-25T08:58:59.728Z,1012.30
2018-01-25T09:00:00.026Z,1012.25
2018-01-25T09:01:00.236Z,1012.24
2018-01-25T09:02:00.135Z,1012.33
2018-01-25T09:03:00.249Z,1012.40
2018-01-25T09:04:00.250Z,1012.39
2018-01-25T09:05:00.374Z,1012.39
2018-01-25T09:05:59.996Z,1012.47
2018-01-25T09:06:59.899Z,1012.43
2018-01-25T09:07:59.829Z,1012.40
2018-01-25T09:08:59.832Z,1012.35
2018-01-25T09:09:59.641Z,1012.30
2018-01-25T09:10:59.270Z,1012.29
2018-01-25T09:12:00.266Z,1012.22
2018-01-25T09:12:59.709Z,1012.30
2018-01-25T09:13:59.386Z,1012.27
2018-01-25T09:14:59.818Z,1012.23
2018-01-25T09:15:59.446Z,1012.24
2018-01-25T09:16:59.993Z,1012.20
2018-01-25T09:18:00.031Z,1012.25
2018-01-25T09:18:59.845Z,1012.29
2018-01-25T09:19:59.803Z,1012.30
2018-01-25T09:20:59.835Z,1012.40
2018-01-25T09:21:59.366Z,1012.34
2018-01-25T09:22:59.746Z,1012.38
2018-01-25T09:23:59.421Z,1012.33
2018-01-25T09:25:00.158Z,1012.31
2018-01-25T09:25:59.637Z,1012.35
2018-01-25T09:26:59.178Z,1012.38
2018-01-25T09:28:00.452Z,1012.42
2018-01-25T09:28:59.911Z,1012.46
2018-01-25T09:30:00.025Z,1012.46
2018-01-25T09:31:00.480Z,1012.42
2018-01-25T09:31:59.533Z,1012.36
2018-01-25T09:32:59.412Z,1012.35
2018-01-25T09:34:42.738Z,1012.40
2018-01-25T09:35:43.844Z,1012.35
2018-01-25T09:36:43.908Z,1012.37
2018-01-25T09:37:44.010Z,1012.34
2018-01-25T09:38:43.583Z,1012.38
2018-01-25T09:39:43.428Z,1012.39
2018-01-25T09:40:43.146Z,1012.30
2018-01-25T09:41:42.881Z,1012.29
2018-01-25T09:42:43.231Z,1012.32
2018-01-25T09:43:43.037Z,1012.36
2018-01-25T09:44:43.861Z,1012.35
2018-01-25T09:45:43.933Z,1012.36
2018-01-25T09:46:44.062Z,1012.33
2018-01-25T09:47:44.005Z,1012.34
2018-01-25T09:48:44.123Z,1012.31
2018-01-25T09:49:43.117Z,1012.36
2018-01-25T09:50:43.532Z,1012.32
2018-01-25T09:51:43.247Z,1012.29
2018-01-25T09:52:43.221Z,1012.35
2018-01-25T09:53:43.521Z,1012.29
2018-01-25T09:54:43.231Z,1012.25
2018-01-25T09:55:42.788Z,1012.34
2018-01-25T09:56:44.033Z,1012.44
2018-01-25T09:58:06.878Z,1012.37
2018-01-25T09:59:06.837Z,1012.36
2018-01-25T10:00:06.844Z,1012.40
2018-01-25T10:01:07.124Z,1012.42
2018-01-25T10:02:06.583Z,1012.40
2018-01-25T10:03:07.719Z,1012.43
2018-01-25T10:04:06.733Z,1012.47
2018-01-25T10:05:30.000Z,1012.45
2018-01-25T10:06:30.102Z,1012.41
2018-01-25T10:07:30.709Z,1012.42
2018-01-25T10:08:30.553Z,1012.45
2018-01-25T10:09:30.424Z,1012.43
2018-01-25T10:10:30.501Z,1012.44
2018-01-25T10:11:30.764Z,1012.46
2018-01-25T10:12:30.836Z,1012.47
2018-01-25T10:13:30.697Z,1012.48
2018-01-25T10:14:30.576Z,1012.51
2018-01-25T10:15:30.422Z,1012.53
2018-01-25T10:16:30.584Z,1012.54
2018-01-25T10:17:30.740Z,1012.53
2018-01-25T10:18:30.401Z,1012.52
2018-01-25T10:19:29.881Z,1012.57
2018-01-25T10:20:30.304Z,1012.55
2018-01-25T10:21:30.389Z,1012.61
2018-01-25T10:22:29.973Z,1012.60
2018-01-25T10:23:30.451Z,1012.63
2018-01-25T10:24:29.950Z,1012.65
2018-01-25T10:25:31.050Z,1012.63
2018-01-25T10:26:30.153Z,1012.62
2018-01-25T10:27:30.245Z,1012.61
2018-01-25T10:28:30.168Z,1012.59
2018-01-25T10:29:51.726Z,1012.57
2018-01-25T10:30:52.552Z,1012.65
2018-01-25T10:31:52.689Z,1012.64
2018-01-25T10:32:52.105Z,1012.63
2018-01-25T10:33:53.048Z,1012.62
2018-01-25T10:34:52.632Z,1012.62
2018-01-25T10:35:52.683Z,1012.61
2018-01-25T10:36:52.646Z,1012.65
2018-01-25T10:37:52.828Z,1012.62
2018-01-25T10:39:14.079Z,1012.61
2018-01-25T10:40:14.602Z,1012.56
2018-01-25T10:41:14.763Z,1012.53
2018-01-25T10:42:14.698Z,1012.53
2018-01-25T10:43:14.491Z,1012.56
2018-01-25T10:44:16.205Z,1012.59
2018-01-25T10:45:14.834Z,1012.64
2018-01-25T10:46:14.768Z,1012.59
2018-01-25T10:47:14.543Z,1012.62
2018-01-25T10:48:15.455Z,1012.58
2018-01-25T10:49:15.020Z,1012.62
2018-01-25T10:50:36.231Z,1012.63
2018-01-25T10:51:36.126Z,1012.63
2018-01-25T10:52:37.232Z,1012.63
2018-01-25T10:53:36.795Z,1012.64
2018-01-25T10:54:36.353Z,1012.68
2018-01-25T10:55:35.831Z,1012.63
2018-01-25T10:56:36.604Z,1012.65
2018-01-25T10:57:36.640Z,1012.61
2018-01-25T10:58:36.547Z,1012.58
2018-01-25T10:59:35.986Z,1012.56
2018-01-25T11:00:36.564Z,1012.59
2018-01-25T11:01:36.189Z,1012.61
2018-01-25T11:02:37.059Z,1012.64
2018-01-25T11:03:36.573Z,1012.63
2018-01-25T11:04:36.117Z,1012.67
2018-01-25T11:05:36.493Z,1012.66
2018-01-25T11:06:36.285Z,1012.63
2018-01-25T11:07:35.814Z,1012.65
2018-01-25T11:08:36.379Z,1012.62
2018-01-25T11:09:36.292Z,1012.63
2018-01-25T11:10:36.656Z,1012.66
2018-01-25T11:11:36.631Z,1012.61
2018-01-25T11:12:35.975Z,1012.61
2018-01-25T11:13:58.095Z,1012.61
2018-01-25T11:14:58.838Z,1012.65
2018-01-25T11:15:58.300Z,1012.72
2018-01-25T11:16:59.638Z,1012.71
2018-01-25T11:17:58.634Z,1012.65
2018-01-25T11:18:58.920Z,1012.60
2018-01-25T11:19:58.250Z,1012.61
2018-01-25T11:20:59.231Z,1012.64
2018-01-25T11:21:59.145Z,1012.65
2018-01-25T11:22:58.859Z,1012.62
2018-01-25T11:23:59.290Z,1012.63
2018-01-25T11:24:59.232Z,1012.62
2018-01-25T11:25:58.811Z,1012.60
2018-01-25T11:26:59.385Z,1012.56
2018-01-25T11:27:59.222Z,1012.56
2018-01-25T11:28:59.107Z,1012.52
2018-01-25T11:29:58.603Z,1012.48
2018-01-25T11:30:58.894Z,1012.40
2018-01-25T11:31:58.681Z,1012.37
2018-01-25T11:32:58.090Z,1012.34
2018-01-25T11:33:58.974Z,1012.34
2018-01-25T11:34:58.421Z,1012.37
2018-01-25T11:36:20.768Z,1012.35
2018-01-25T11:37:43.423Z,1012.33
2018-01-25T11:38:43.807Z,1012.35
2018-01-25T11:39:43.086Z,1012.38
2018-01-25T11:41:05.513Z,1012.38
2018-01-25T11:42:05.449Z,1012.40
2018-01-25T11:43:05.031Z,1012.40
2018-01-25T11:44:06.009Z,1012.39
2018-01-25T11:45:05.939Z,1012.39
2018-01-25T11:46:05.939Z,1012.34
2018-01-25T11:47:05.842Z,1012.33
2018-01-25T11:48:05.290Z,1012.29
2018-01-25T11:49:06.281Z,1012.32
2018-01-25T11:50:04.727Z,1012.31
2018-01-25T11:51:05.191Z,1012.29
2018-01-25T11:52:06.448Z,1012.35
2018-01-25T11:53:05.409Z,1012.33
2018-01-25T11:54:04.901Z,1012.35
2018-01-25T11:55:05.976Z,1012.29
2018-01-25T11:56:05.545Z,1012.29
2018-01-25T11:57:05.414Z,1012.28
2018-01-25T11:58:05.770Z,1012.26
2018-01-25T11:59:05.447Z,1012.27
2018-01-25T12:00:27.941Z,1012.26
2018-01-25T12:01:27.259Z,1012.26
2018-01-25T12:02:27.046Z,1012.27
2018-01-25T12:03:27.987Z,1012.25
2018-01-25T12:04:27.820Z,1012.26
2018-01-25T12:05:27.592Z,1012.30
2018-01-25T12:06:27.575Z,1012.35
2018-01-25T12:07:27.764Z,1012.33
2018-01-25T12:08:27.725Z,1012.33
2018-01-25T12:09:28.112Z,1012.32
2018-01-25T12:10:26.629Z,1012.32
2018-01-25T12:11:27.498Z,1012.30
2018-01-25T12:12:27.462Z,1012.34
2018-01-25T12:13:27.521Z,1012.32
2018-01-25T12:14:28.050Z,1012.30
2018-01-25T12:15:28.208Z,1012.28
2018-01-25T12:16:27.346Z,1012.25
2018-01-25T12:17:26.833Z,1012.23
2018-01-25T12:18:27.358Z,1012.21
2018-01-25T12:19:27.155Z,1012.17
2018-01-25T12:20:26.704Z,1012.19
2018-01-25T12:21:27.850Z,1012.17
2018-01-25T12:22:27.406Z,1012.15
2018-01-25T12:23:49.014Z,1012.15
2018-01-25T12:24:50.056Z,1012.16
2018-01-25T12:25:48.881Z,1012.08
2018-01-25T12:26:49.814Z,1012.06